createdAt,value
2016-11-26T00:00:13.575Z,91.14
2016-11-26T00:01:22.164Z,90.86
2016-11-26T00:02:30.763Z,90.81
2016-11-26T00:03:39.666Z,90.29
2016-11-26T00:04:48.236Z,90.15
2016-11-26T00:05:57.123Z,90.43
2016-11-26T00:07:05.715Z,90.95
2016-11-26T00:08:14.301Z,91.71
2016-11-26T00:09:23.538Z,91.81
2016-11-26T00:10:32.444Z,91.43
2016-11-26T00:11:41.446Z,91.52
2016-11-26T00:12:50.674Z,90.58
2016-11-26T00:14:00.231Z,90.43
2016-11-26T00:15:09.138Z,90.29
2016-11-26T00:16:18.066Z,90.67
2016-11-26T00:17:26.693Z,91.05
2016-11-26T00:18:35.256Z,91.43
2016-11-26T00:19:43.843Z,91.33
2016-11-26T00:20:52.418Z,92.28
2016-11-26T00:22:01.004Z,91.43
2016-11-26T00:23:09.677Z,92.19
2016-11-26T00:24:18.572Z,91.33
2016-11-26T00:25:27.463Z,91.43
2016-11-26T00:26:36.050Z,91.71
2016-11-26T00:27:44.945Z,91.71
2016-11-26T00:28:53.881Z,91.43
2016-11-26T00:30:02.447Z,90.48
2016-11-26T00:31:11.025Z,90.58
2016-11-26T00:32:19.934Z,90.62
2016-11-26T00:33:28.532Z,90.67
2016-11-26T00:34:38.436Z,90.29
2016-11-26T00:35:47.659Z,90.39
2016-11-26T00:36:56.258Z,90.39
2016-11-26T00:38:05.489Z,91.05
2016-11-26T00:39:14.074Z,90.48
2016-11-26T00:40:23.027Z,90.29
2016-11-26T00:41:31.927Z,88.54
2016-11-26T00:42:40.499Z,88.73
2016-11-26T00:43:49.718Z,88.54
2016-11-26T00:44:58.306Z,88.92
2016-11-26T00:46:07.578Z,89.91
2016-11-26T00:47:16.487Z,89.44
2016-11-26T00:48:25.058Z,89.82
2016-11-26T00:49:33.949Z,91.43
2016-11-26T00:50:42.537Z,89.91
2016-11-26T00:51:51.836Z,89.15
2016-11-26T00:53:00.735Z,89.63
2016-11-26T00:54:09.957Z,89.72
2016-11-26T00:55:19.513Z,89.91
2016-11-26T00:56:28.404Z,88.96
2016-11-26T00:57:37.440Z,90.39
2016-11-26T00:58:46.337Z,90.1
2016-11-26T00:59:54.906Z,90.77
2016-11-26T01:01:03.856Z,90.39
2016-11-26T01:02:12.757Z,90.1
2016-11-26T01:03:22.370Z,89.53
2016-11-26T01:04:30.932Z,90.1
2016-11-26T01:05:39.834Z,89.53
2016-11-26T01:06:48.418Z,89.91
2016-11-26T01:07:57.349Z,89.72
2016-11-26T01:09:06.557Z,88.96
2016-11-26T01:10:15.457Z,89.06
2016-11-26T01:11:24.035Z,89.72
2016-11-26T01:12:32.933Z,89.06
2016-11-26T01:13:41.810Z,88.11
2016-11-26T01:14:50.773Z,86.88
2016-11-26T01:15:59.345Z,86.12
2016-11-26T01:17:08.258Z,87.59
2016-11-26T01:18:16.821Z,88.59
2016-11-26T01:19:25.384Z,88.78
2016-11-26T01:20:34.355Z,88.68
2016-11-26T01:21:42.938Z,86.98
2016-11-26T01:22:51.514Z,86.69
2016-11-26T01:24:00.111Z,86.69
2016-11-26T01:25:08.693Z,86.88
2016-11-26T01:26:17.689Z,85.74
2016-11-26T01:27:26.261Z,85.74
2016-11-26T01:28:34.839Z,86.6
2016-11-26T01:29:43.417Z,86.69
2016-11-26T01:30:52.310Z,87.07
2016-11-26T01:32:01.260Z,87.92
2016-11-26T01:33:09.847Z,89.34
2016-11-26T01:34:18.432Z,89.2
2016-11-26T01:35:27.008Z,89.77
2016-11-26T01:36:35.576Z,89.2
2016-11-26T01:37:44.504Z,88.78
2016-11-26T01:38:53.418Z,88.17
2016-11-26T01:40:01.995Z,89.34
2016-11-26T01:41:10.892Z,88.35
2016-11-26T01:42:19.801Z,88.92
2016-11-26T01:43:28.494Z,88.82
2016-11-26T01:44:37.087Z,89.49
2016-11-26T01:45:45.667Z,88.92
2016-11-26T01:46:54.547Z,89.3
2016-11-26T01:48:03.134Z,89.39
2016-11-26T01:49:12.078Z,89.3
2016-11-26T01:50:21.635Z,89.01
2016-11-26T01:51:30.224Z,88.73
2016-11-26T01:52:39.125Z,89.01
2016-11-26T01:53:48.015Z,89.68
2016-11-26T01:54:56.638Z,89.68
2016-11-26T01:56:05.227Z,89.58
2016-11-26T01:57:13.816Z,89.39
2016-11-26T01:58:22.390Z,88.45
2016-11-26T01:59:30.966Z,87.4
2016-11-26T02:00:39.645Z,87.88
2016-11-26T02:01:48.230Z,88.73
2016-11-26T02:02:57.442Z,89.11
2016-11-26T02:04:06.346Z,88.45
2016-11-26T02:05:15.252Z,88.64
2016-11-26T02:06:23.864Z,88.45
2016-11-26T02:07:32.434Z,88.07
2016-11-26T02:08:41.004Z,88.45
2016-11-26T02:09:49.590Z,87.5
2016-11-26T02:10:58.160Z,88.45
2016-11-26T02:12:07.365Z,88.26
2016-11-26T02:13:16.258Z,88.26
2016-11-26T02:14:24.832Z,88.35
2016-11-26T02:15:33.418Z,87.88
2016-11-26T02:16:42.003Z,88.64
2016-11-26T02:17:51.252Z,88.54
2016-11-26T02:19:00.147Z,88.68
2016-11-26T02:20:08.734Z,88.45
2016-11-26T02:21:17.309Z,88.82
2016-11-26T02:22:26.220Z,88.73
2016-11-26T02:23:34.847Z,88.45
2016-11-26T02:24:44.054Z,88.78
2016-11-26T02:25:52.944Z,88.17
2016-11-26T02:27:01.852Z,87.74
2016-11-26T02:28:10.437Z,88.78
2016-11-26T02:29:19.984Z,88.54
2016-11-26T02:30:28.555Z,87.5
2016-11-26T02:31:37.123Z,85.7
2016-11-26T02:32:46.011Z,85.42
2016-11-26T02:33:54.920Z,86.08
2016-11-26T02:35:03.907Z,87.98
2016-11-26T02:36:12.807Z,88.59
2016-11-26T02:37:22.036Z,88.68
2016-11-26T02:38:30.936Z,88.4
2016-11-26T02:39:39.837Z,87.27
2016-11-26T02:40:48.877Z,87.74
2016-11-26T02:41:57.780Z,88.02
2016-11-26T02:43:06.668Z,86.46
2016-11-26T02:44:15.237Z,88.31
2016-11-26T02:45:24.144Z,88.68
2016-11-26T02:46:33.493Z,88.97
2016-11-26T02:47:42.709Z,89.25
2016-11-26T02:48:51.593Z,88.68
2016-11-26T02:50:00.497Z,88.78
2016-11-26T02:51:09.415Z,89.73
2016-11-26T02:52:18.624Z,89.82
2016-11-26T02:53:27.200Z,91.24
2016-11-26T02:54:35.771Z,92.9
2016-11-26T02:55:44.351Z,91.39
2016-11-26T02:56:53.231Z,92.05
2016-11-26T02:58:02.208Z,91.86
2016-11-26T02:59:11.104Z,90.44
2016-11-26T03:00:20.003Z,90.86
2016-11-26T03:01:28.900Z,90.39
2016-11-26T03:02:37.492Z,91.43
2016-11-26T03:03:46.113Z,90.86
2016-11-26T03:04:55.006Z,90.63
2016-11-26T03:06:03.596Z,90.96
2016-11-26T03:07:12.513Z,90.77
2016-11-26T03:08:21.739Z,91.2
2016-11-26T03:09:30.671Z,91.1
2016-11-26T03:10:39.239Z,90.48
2016-11-26T03:11:48.131Z,90.58
2016-11-26T03:12:56.696Z,90.3
2016-11-26T03:14:06.070Z,91.39
2016-11-26T03:15:14.976Z,91.2
2016-11-26T03:16:23.543Z,90.3
2016-11-26T03:17:32.105Z,90.01
2016-11-26T03:18:40.983Z,89.82
2016-11-26T03:19:49.860Z,90.11
2016-11-26T03:20:58.743Z,89.97
2016-11-26T03:22:07.943Z,89.44
2016-11-26T03:23:16.500Z,89.44
2016-11-26T03:24:25.063Z,89.54
2016-11-26T03:25:34.262Z,89.54
2016-11-26T03:26:43.590Z,89.82
2016-11-26T03:27:52.152Z,88.87
2016-11-26T03:29:00.720Z,88.68
2016-11-26T03:30:09.280Z,89.35
2016-11-26T03:31:17.847Z,88.87
2016-11-26T03:32:27.077Z,89.63
2016-11-26T03:33:35.959Z,88.68
2016-11-26T03:34:44.518Z,87.27
2016-11-26T03:35:53.081Z,88.49
2016-11-26T03:37:02.598Z,88.97
2016-11-26T03:38:11.576Z,88.78
2016-11-26T03:39:20.454Z,88.78
2016-11-26T03:40:29.334Z,88.87
2016-11-26T03:41:38.215Z,89.25
2016-11-26T03:42:46.788Z,89.35
2016-11-26T03:43:55.717Z,89.44
2016-11-26T03:45:04.282Z,89.63
2016-11-26T03:46:13.165Z,89.44
2016-11-26T03:47:22.077Z,90.01
2016-11-26T03:48:30.638Z,89.25
2016-11-26T03:49:39.968Z,89.16
2016-11-26T03:50:49.165Z,89.44
2016-11-26T03:51:58.047Z,88.31
2016-11-26T03:53:06.612Z,89.82
2016-11-26T03:54:15.172Z,89.35
2016-11-26T03:55:24.401Z,88.87
2016-11-26T03:56:32.960Z,88.59
2016-11-26T03:57:42.157Z,88.78
2016-11-26T03:58:50.752Z,89.44
2016-11-26T03:59:59.626Z,88.97
2016-11-26T04:01:08.904Z,88.97
2016-11-26T04:02:18.100Z,88.4
2016-11-26T04:03:26.659Z,89.06
2016-11-26T04:04:35.220Z,88.49
2016-11-26T04:05:44.100Z,88.4
2016-11-26T04:06:53.068Z,88.49
2016-11-26T04:08:02.266Z,88.02
2016-11-26T04:09:11.147Z,87.74
2016-11-26T04:10:19.742Z,86.6
2016-11-26T04:11:28.305Z,87.5
2016-11-26T04:12:37.554Z,87.93
2016-11-26T04:13:46.117Z,88.49
2016-11-26T04:14:55.040Z,88.31
2016-11-26T04:16:03.924Z,88.4
2016-11-26T04:17:13.124Z,87.55
2016-11-26T04:18:22.354Z,87.74
2016-11-26T04:19:31.555Z,87.46
2016-11-26T04:20:40.463Z,87.74
2016-11-26T04:21:49.341Z,88.49
2016-11-26T04:22:57.905Z,87.46
2016-11-26T04:24:06.517Z,88.12
2016-11-26T04:25:15.076Z,88.59
2016-11-26T04:26:23.636Z,88.21
2016-11-26T04:27:32.513Z,88.31
2016-11-26T04:28:41.075Z,88.4
2016-11-26T04:29:49.683Z,88.87
2016-11-26T04:30:58.245Z,88.59
2016-11-26T04:32:07.444Z,89.02
2016-11-26T04:33:16.330Z,89.12
2016-11-26T04:34:25.524Z,88.97
2016-11-26T04:35:34.503Z,88.68
2016-11-26T04:36:43.384Z,88.87
2016-11-26T04:37:52.580Z,88.87
2016-11-26T04:39:01.461Z,88.49
2016-11-26T04:40:10.023Z,88.87
2016-11-26T04:41:18.886Z,88.97
2016-11-26T04:42:27.445Z,88.21
2016-11-26T04:43:36.008Z,87.55
2016-11-26T04:44:44.889Z,87.65
2016-11-26T04:45:54.122Z,86.79
2016-11-26T04:47:03.102Z,86.41
2016-11-26T04:48:11.984Z,87.84
2016-11-26T04:49:20.860Z,88.64
2016-11-26T04:50:29.747Z,88.93
2016-11-26T04:51:38.626Z,89.12
2016-11-26T04:52:47.870Z,88.17
2016-11-26T04:53:56.746Z,87.84
2016-11-26T04:55:05.949Z,86.51
2016-11-26T04:56:14.515Z,87.84
2016-11-26T04:57:23.075Z,87.74
2016-11-26T04:58:32.695Z,87.84
2016-11-26T04:59:41.573Z,87.41
2016-11-26T05:00:50.135Z,88.17
2016-11-26T05:01:58.699Z,87.98
2016-11-26T05:03:07.582Z,89.21
2016-11-26T05:04:16.550Z,88.74
2016-11-26T05:05:25.432Z,88.36
2016-11-26T05:06:33.994Z,88.17
2016-11-26T05:07:42.591Z,88.55
2016-11-26T05:08:51.192Z,88.55
2016-11-26T05:09:59.853Z,88.36
2016-11-26T05:11:09.051Z,88.74
2016-11-26T05:12:17.929Z,88.07
2016-11-26T05:13:26.809Z,87.6
2016-11-26T05:14:35.690Z,87.13
2016-11-26T05:15:44.305Z,86.7
2016-11-26T05:16:53.186Z,86.89
2016-11-26T05:18:01.750Z,85.66
2016-11-26T05:19:10.657Z,85.75
2016-11-26T05:20:19.215Z,87.41
2016-11-26T05:21:27.828Z,88.26
2016-11-26T05:22:37.344Z,88.17
2016-11-26T05:23:46.226Z,88.26
2016-11-26T05:24:54.792Z,88.55
2016-11-26T05:26:03.992Z,88.45
2016-11-26T05:27:12.603Z,89.21
2016-11-26T05:28:21.164Z,88.64
2016-11-26T05:29:30.045Z,89.21
2016-11-26T05:30:38.605Z,89.4
2016-11-26T05:31:47.168Z,88.93
2016-11-26T05:32:56.670Z,88.26
2016-11-26T05:34:05.554Z,87.88
2016-11-26T05:35:14.432Z,88.36
2016-11-26T05:36:22.992Z,88.74
2016-11-26T05:37:31.554Z,88.26
2016-11-26T05:38:40.516Z,88.55
2016-11-26T05:39:49.402Z,88.55
2016-11-26T05:40:57.962Z,88.26
2016-11-26T05:42:06.520Z,88.07
2016-11-26T05:43:15.080Z,88.64
2016-11-26T05:44:24.405Z,88.45
2016-11-26T05:45:33.281Z,88.17
2016-11-26T05:46:42.163Z,87.41
2016-11-26T05:47:51.042Z,87.51
2016-11-26T05:48:59.922Z,87.79
2016-11-26T05:50:09.172Z,87.32
2016-11-26T05:51:18.051Z,87.98
2016-11-26T05:52:26.962Z,88.64
2016-11-26T05:53:36.163Z,88.26
2016-11-26T05:54:45.357Z,87.79
2016-11-26T05:55:54.639Z,87.51
2016-11-26T05:57:03.520Z,87.98
2016-11-26T05:58:12.399Z,87.7
2016-11-26T05:59:21.280Z,87.7
2016-11-26T06:00:30.163Z,87.79
2016-11-26T06:01:38.774Z,87.51
2016-11-26T06:02:47.336Z,86.66
2016-11-26T06:03:56.217Z,86.94
2016-11-26T06:05:04.780Z,87.13
2016-11-26T06:06:13.659Z,86.7
2016-11-26T06:07:22.673Z,87.7
2016-11-26T06:08:31.236Z,87.6
2016-11-26T06:09:40.112Z,87.88
2016-11-26T06:10:48.992Z,87.88
2016-11-26T06:11:57.559Z,87.04
2016-11-26T06:13:06.815Z,87.13
2016-11-26T06:14:15.692Z,88.45
2016-11-26T06:15:24.570Z,87.51
2016-11-26T06:16:33.451Z,87.23
2016-11-26T06:17:42.650Z,86.6
2016-11-26T06:18:51.507Z,86.56
2016-11-26T06:20:00.072Z,85.9
2016-11-26T06:21:08.662Z,84.9
2016-11-26T06:22:17.542Z,84.14
2016-11-26T06:23:26.425Z,83.76
2016-11-26T06:24:35.756Z,84.23
2016-11-26T06:25:44.633Z,84.9
2016-11-26T06:26:53.191Z,85.05
2016-11-26T06:28:01.751Z,85.75
2016-11-26T06:29:10.311Z,87.23
2016-11-26T06:30:19.562Z,87.04
2016-11-26T06:31:28.440Z,87.51
2016-11-26T06:32:37.349Z,87.04
2016-11-26T06:33:46.543Z,86.18
2016-11-26T06:34:55.424Z,86.37
2016-11-26T06:36:04.340Z,86.66
2016-11-26T06:37:13.217Z,86.85
2016-11-26T06:38:21.774Z,87.41
2016-11-26T06:39:30.330Z,87.6
2016-11-26T06:40:39.530Z,86.47
2016-11-26T06:41:48.439Z,86.56
2016-11-26T06:42:57.315Z,85.8
2016-11-26T06:44:06.194Z,85.52
2016-11-26T06:45:15.085Z,85.71
2016-11-26T06:46:23.640Z,85.71
2016-11-26T06:47:32.249Z,85.24
2016-11-26T06:48:41.131Z,84.29
2016-11-26T06:49:50.014Z,84.77
2016-11-26T06:50:58.576Z,85.9
2016-11-26T06:52:07.454Z,85.9
2016-11-26T06:53:16.365Z,85.52
2016-11-26T06:54:24.927Z,85.42
2016-11-26T06:55:34.126Z,85.9
2016-11-26T06:56:43.007Z,85.14
2016-11-26T06:57:51.566Z,85.71
2016-11-26T06:59:00.744Z,85.33
2016-11-26T07:00:09.621Z,84.67
2016-11-26T07:01:18.184Z,85.52
2016-11-26T07:02:27.379Z,85.33
2016-11-26T07:03:36.271Z,85.61
2016-11-26T07:04:45.527Z,85.61
2016-11-26T07:05:54.083Z,85.33
2016-11-26T07:07:02.641Z,85.14
2016-11-26T07:08:11.527Z,85.33
2016-11-26T07:09:20.403Z,85.71
2016-11-26T07:10:29.334Z,86.37
2016-11-26T07:11:38.211Z,86.18
2016-11-26T07:12:46.776Z,86.47
2016-11-26T07:13:55.666Z,86.09
2016-11-26T07:15:04.556Z,86.37
2016-11-26T07:16:13.531Z,86.75
2016-11-26T07:17:22.094Z,86.37
2016-11-26T07:18:30.652Z,86.18
2016-11-26T07:19:39.213Z,86.66
2016-11-26T07:20:47.773Z,86.47
2016-11-26T07:21:56.698Z,85.71
2016-11-26T07:23:05.584Z,85.33
2016-11-26T07:24:14.147Z,86.66
2016-11-26T07:25:23.023Z,86.66
2016-11-26T07:26:31.898Z,85.14
2016-11-26T07:27:41.123Z,84.77
2016-11-26T07:28:49.684Z,84.39
2016-11-26T07:29:58.564Z,85.42
2016-11-26T07:31:07.456Z,85.42
2016-11-26T07:32:16.969Z,84.86
2016-11-26T07:33:25.880Z,85.9
2016-11-26T07:34:34.755Z,85.8
2016-11-26T07:35:43.327Z,85.14
2016-11-26T07:36:52.206Z,84.58
2016-11-26T07:38:01.084Z,84.01
2016-11-26T07:39:09.727Z,84.39
2016-11-26T07:40:18.640Z,84.67
2016-11-26T07:41:27.197Z,84.58
2016-11-26T07:42:35.755Z,85.14
2016-11-26T07:43:44.315Z,85.52
2016-11-26T07:44:53.226Z,86.09
2016-11-26T07:46:02.106Z,85.71
2016-11-26T07:47:10.982Z,85.42
2016-11-26T07:48:19.573Z,85.05
2016-11-26T07:49:28.775Z,83.63
2016-11-26T07:50:38.007Z,84.58
2016-11-26T07:51:46.882Z,85.24
2016-11-26T07:52:55.442Z,85.24
2016-11-26T07:54:04.001Z,85.52
2016-11-26T07:55:13.201Z,85.52
2016-11-26T07:56:21.815Z,83.63
2016-11-26T07:57:30.374Z,82.97
2016-11-26T07:58:38.933Z,82.97
2016-11-26T07:59:47.494Z,83.82
2016-11-26T08:00:56.061Z,84.2
2016-11-26T08:02:04.971Z,83.63
2016-11-26T08:03:13.847Z,83.25
2016-11-26T08:04:22.405Z,83.91
2016-11-26T08:05:31.602Z,83.15
2016-11-26T08:06:40.484Z,82.87
2016-11-26T08:07:49.811Z,82.91
2016-11-26T08:08:59.046Z,83.91
2016-11-26T08:10:07.929Z,84.2
2016-11-26T08:11:17.768Z,83.63
2016-11-26T08:12:26.332Z,84.86
2016-11-26T08:13:35.264Z,85.33
2016-11-26T08:14:43.823Z,84.86
2016-11-26T08:15:52.394Z,84.29
2016-11-26T08:17:00.956Z,84.01
2016-11-26T08:18:09.518Z,84.2
2016-11-26T08:19:18.744Z,85.42
2016-11-26T08:20:27.627Z,85.61
2016-11-26T08:21:36.195Z,85.99
2016-11-26T08:22:45.074Z,86.37
2016-11-26T08:23:53.634Z,87.18
2016-11-26T08:25:02.547Z,85.42
2016-11-26T08:26:11.115Z,85.61
2016-11-26T08:27:20.012Z,85.24
2016-11-26T08:28:28.574Z,84.67
2016-11-26T08:29:37.143Z,85.33
2016-11-26T08:30:46.691Z,84.01
2016-11-26T08:31:55.255Z,84.01
2016-11-26T08:33:04.168Z,84.2
2016-11-26T08:34:13.368Z,84.86
2016-11-26T08:35:22.244Z,85.33
2016-11-26T08:36:31.500Z,85.14
2016-11-26T08:37:40.072Z,85.05
2016-11-26T08:38:49.272Z,85.05
2016-11-26T08:39:58.183Z,84.1
2016-11-26T08:41:06.744Z,83.63
2016-11-26T08:42:15.754Z,82.91
2016-11-26T08:43:24.314Z,82.44
2016-11-26T08:44:32.876Z,81.4
2016-11-26T08:45:41.764Z,82.06
2016-11-26T08:46:50.324Z,82.72
2016-11-26T08:47:59.253Z,83.39
2016-11-26T08:49:08.449Z,83.95
2016-11-26T08:50:17.327Z,84.05
2016-11-26T08:51:25.887Z,85
2016-11-26T08:52:34.450Z,84.9
2016-11-26T08:53:43.069Z,84.14
2016-11-26T08:54:51.946Z,83.2
2016-11-26T08:56:01.153Z,84.05
2016-11-26T08:57:10.706Z,83.95
2016-11-26T08:58:19.267Z,83.2
2016-11-26T08:59:28.598Z,82.06
2016-11-26T09:00:37.475Z,82.72
2016-11-26T09:01:46.987Z,83.58
2016-11-26T09:02:56.181Z,83.48
2016-11-26T09:04:04.740Z,84.05
2016-11-26T09:05:14.051Z,84.23
2016-11-26T09:06:22.613Z,84.71
2016-11-26T09:07:31.497Z,84.42
2016-11-26T09:08:40.059Z,84.42
2016-11-26T09:09:48.628Z,84.61
2016-11-26T09:10:57.242Z,84.9
2016-11-26T09:12:06.125Z,85.47
2016-11-26T09:13:14.692Z,85.47
2016-11-26T09:14:23.254Z,85.24
2016-11-26T09:15:31.815Z,84.61
2016-11-26T09:16:41.380Z,85.24
2016-11-26T09:17:50.260Z,85
2016-11-26T09:18:59.488Z,84.81
2016-11-26T09:20:08.368Z,84.33
2016-11-26T09:21:16.932Z,84.14
2016-11-26T09:22:25.546Z,83.58
2016-11-26T09:23:34.112Z,83.29
2016-11-26T09:24:42.673Z,83.01
2016-11-26T09:25:51.554Z,82.44
2016-11-26T09:27:00.433Z,82.34
2016-11-26T09:28:09.361Z,81.72
2016-11-26T09:29:18.241Z,80.11
2016-11-26T09:30:26.808Z,80.96
2016-11-26T09:31:35.398Z,80.87
2016-11-26T09:32:44.284Z,80.49
2016-11-26T09:33:53.299Z,81.06
2016-11-26T09:35:01.858Z,81.12
2016-11-26T09:36:10.739Z,80.21
2016-11-26T09:37:19.646Z,79.45
2016-11-26T09:38:28.207Z,79.36
2016-11-26T09:39:37.458Z,79.36
2016-11-26T09:40:46.339Z,78.54
2016-11-26T09:41:55.262Z,78.79
2016-11-26T09:43:04.464Z,78.35
2016-11-26T09:44:13.026Z,79.64
2016-11-26T09:45:21.957Z,79.07
2016-11-26T09:46:30.837Z,79.26
2016-11-26T09:47:39.720Z,78.35
2016-11-26T09:48:48.917Z,80.4
2016-11-26T09:49:57.477Z,80.96
2016-11-26T09:51:06.756Z,80.58
2016-11-26T09:52:15.954Z,79.45
2016-11-26T09:53:24.519Z,79.64
2016-11-26T09:54:33.405Z,79.74
2016-11-26T09:55:42.290Z,79.26
2016-11-26T09:56:51.208Z,81.06
2016-11-26T09:58:00.088Z,80.96
2016-11-26T09:59:08.649Z,81.25
2016-11-26T10:00:17.845Z,80.68
2016-11-26T10:01:26.406Z,81.72
2016-11-26T10:02:35.080Z,81.44
2016-11-26T10:03:43.643Z,81.25
2016-11-26T10:04:52.202Z,80.4
2016-11-26T10:06:00.763Z,80.58
2016-11-26T10:07:09.328Z,81.15
2016-11-26T10:08:17.939Z,82.48
2016-11-26T10:09:26.833Z,82.1
2016-11-26T10:10:35.711Z,81.72
2016-11-26T10:11:44.280Z,81.92
2016-11-26T10:12:52.839Z,80.68
2016-11-26T10:14:02.070Z,78.64
2016-11-26T10:15:10.637Z,80.44
2016-11-26T10:16:19.198Z,81.2
2016-11-26T10:17:27.762Z,80.87
2016-11-26T10:18:36.642Z,81.86
2016-11-26T10:19:45.308Z,81.72
2016-11-26T10:20:53.867Z,81.82
2016-11-26T10:22:02.434Z,81.34
2016-11-26T10:23:11.317Z,80.91
2016-11-26T10:24:20.197Z,80.06
2016-11-26T10:25:29.177Z,80.15
2016-11-26T10:26:37.740Z,80.25
2016-11-26T10:27:46.621Z,79.02
2016-11-26T10:28:55.186Z,79.68
2016-11-26T10:30:04.390Z,79.87
2016-11-26T10:31:13.322Z,79.96
2016-11-26T10:32:21.882Z,80.63
2016-11-26T10:33:30.441Z,81.06
2016-11-26T10:34:39.001Z,82.39
2016-11-26T10:35:47.880Z,82.95
2016-11-26T10:36:56.845Z,82.95
2016-11-26T10:38:06.049Z,82.95
2016-11-26T10:39:15.279Z,81.76
2016-11-26T10:40:24.158Z,81.29
2016-11-26T10:41:33.043Z,81.67
2016-11-26T10:42:41.657Z,82.48
2016-11-26T10:43:50.249Z,83
2016-11-26T10:44:59.128Z,82.57
2016-11-26T10:46:08.013Z,81.76
2016-11-26T10:47:16.896Z,81.01
2016-11-26T10:48:25.517Z,81.01
2016-11-26T10:49:34.399Z,82.05
2016-11-26T10:50:42.972Z,83
2016-11-26T10:51:51.538Z,83
2016-11-26T10:53:00.102Z,82.14
2016-11-26T10:54:08.716Z,82.33
2016-11-26T10:55:17.280Z,82.14
2016-11-26T10:56:26.163Z,82.9
2016-11-26T10:57:34.733Z,82.52
2016-11-26T10:58:43.934Z,83.47
2016-11-26T10:59:52.595Z,82.57
2016-11-26T11:01:01.493Z,82.81
2016-11-26T11:02:10.702Z,81.76
2016-11-26T11:03:19.583Z,81.01
2016-11-26T11:04:28.466Z,81.95
2016-11-26T11:05:37.399Z,82.24
2016-11-26T11:06:45.963Z,80.91
2016-11-26T11:07:54.847Z,79.53
2016-11-26T11:09:03.734Z,79.72
2016-11-26T11:10:12.299Z,80.19
2016-11-26T11:11:21.953Z,81.57
2016-11-26T11:12:30.526Z,82.33
2016-11-26T11:13:39.414Z,81.29
2016-11-26T11:14:47.976Z,80.19
2016-11-26T11:15:56.861Z,78.77
2016-11-26T11:17:05.824Z,78.91
2016-11-26T11:18:15.024Z,79.34
2016-11-26T11:19:23.595Z,80.38
2016-11-26T11:20:32.161Z,81.48
2016-11-26T11:21:40.727Z,83
2016-11-26T11:22:49.658Z,83
2016-11-26T11:23:58.225Z,83.85
2016-11-26T11:25:07.111Z,81.01
2016-11-26T11:26:15.675Z,80.86
2016-11-26T11:27:24.239Z,81.81
2016-11-26T11:28:33.787Z,82.37
2016-11-26T11:29:42.356Z,82.81
2016-11-26T11:30:51.271Z,83
2016-11-26T11:31:59.837Z,81.62
2016-11-26T11:33:09.038Z,82.43
2016-11-26T11:34:18.320Z,84.04
2016-11-26T11:35:26.883Z,82.62
2016-11-26T11:36:35.764Z,81.81
2016-11-26T11:37:44.330Z,81.86
2016-11-26T11:38:52.900Z,82.47
2016-11-26T11:40:01.514Z,83.37
2016-11-26T11:41:10.086Z,81.76
2016-11-26T11:42:18.658Z,80.76
2016-11-26T11:43:27.228Z,80.48
2016-11-26T11:44:36.430Z,80.38
2016-11-26T11:45:45.661Z,81.71
2016-11-26T11:46:54.228Z,81.9
2016-11-26T11:48:03.111Z,80
2016-11-26T11:49:11.997Z,81.33
2016-11-26T11:50:20.885Z,81.71
2016-11-26T11:51:30.226Z,83.42
2016-11-26T11:52:38.790Z,82.81
2016-11-26T11:53:47.354Z,83.04
2016-11-26T11:54:55.923Z,83.37
2016-11-26T11:56:04.804Z,82.62
2016-11-26T11:57:14.085Z,83.56
2016-11-26T11:58:22.645Z,83.47
2016-11-26T11:59:31.213Z,82.28
2016-11-26T12:00:40.417Z,81.81
2016-11-26T12:01:49.303Z,81.14
2016-11-26T12:02:58.854Z,80.14
2016-11-26T12:04:07.736Z,79.95
2016-11-26T12:05:16.302Z,81.81
2016-11-26T12:06:24.875Z,81.14
2016-11-26T12:07:33.443Z,80.48
2016-11-26T12:08:43.014Z,80.86
2016-11-26T12:09:51.898Z,80.43
2016-11-26T12:11:00.782Z,80.9
2016-11-26T12:12:09.667Z,80.14
2016-11-26T12:13:18.865Z,81.71
2016-11-26T12:14:28.196Z,80.76
2016-11-26T12:15:37.398Z,79.95
2016-11-26T12:16:46.279Z,79.14
2016-11-26T12:17:55.479Z,79.66
2016-11-26T12:19:04.364Z,78.81
2016-11-26T12:20:12.978Z,80.14
2016-11-26T12:21:21.864Z,81.99
2016-11-26T12:22:31.066Z,81.81
2016-11-26T12:23:39.946Z,82.37
2016-11-26T12:24:48.509Z,82.18
2016-11-26T12:25:57.447Z,81.33
2016-11-26T12:27:06.019Z,81.56
2016-11-26T12:28:14.583Z,80.33
2016-11-26T12:29:23.152Z,80.71
2016-11-26T12:30:32.031Z,81.75
2016-11-26T12:31:41.220Z,81.18
2016-11-26T12:32:50.104Z,81.18
2016-11-26T12:33:58.671Z,80.9
2016-11-26T12:35:07.240Z,80.71
2016-11-26T12:36:15.810Z,79.9
2016-11-26T12:37:24.825Z,79.23
2016-11-26T12:38:33.711Z,78.95
2016-11-26T12:39:42.315Z,79.8
2016-11-26T12:40:51.200Z,78.75
2016-11-26T12:42:00.086Z,80.56
2016-11-26T12:43:09.052Z,82.42
2016-11-26T12:44:17.618Z,80.24
2016-11-26T12:45:26.188Z,78.66
2016-11-26T12:46:35.069Z,77.52
2016-11-26T12:47:43.960Z,77.75
2016-11-26T12:48:53.197Z,76.52
2016-11-26T12:50:01.764Z,77.66
2016-11-26T12:51:10.649Z,78.47
2016-11-26T12:52:19.218Z,77.37
2016-11-26T12:53:27.792Z,79.42
2016-11-26T12:54:36.408Z,80.75
2016-11-26T12:55:44.971Z,81.13
2016-11-26T12:56:53.539Z,80.08
2016-11-26T12:58:02.427Z,80.46
2016-11-26T12:59:11.635Z,81.41
2016-11-26T13:00:20.569Z,81.6
2016-11-26T13:01:29.453Z,81.41
2016-11-26T13:02:38.335Z,80.56
2016-11-26T13:03:47.226Z,80.99
2016-11-26T13:04:55.820Z,81.6
2016-11-26T13:06:04.440Z,80.75
2016-11-26T13:07:13.641Z,81.32
2016-11-26T13:08:22.204Z,82.36
2016-11-26T13:09:30.773Z,81.88
2016-11-26T13:10:39.657Z,81.7
2016-11-26T13:11:48.896Z,81.41
2016-11-26T13:12:57.788Z,81.41
2016-11-26T13:14:06.993Z,80.56
2016-11-26T13:15:15.875Z,81.51
2016-11-26T13:16:24.442Z,81.88
2016-11-26T13:17:33.361Z,81.79
2016-11-26T13:18:41.923Z,81.51
2016-11-26T13:19:50.493Z,81.13
2016-11-26T13:20:59.378Z,80.37
2016-11-26T13:22:08.258Z,80.6
2016-11-26T13:23:17.195Z,81.98
2016-11-26T13:24:25.792Z,81.41
2016-11-26T13:25:34.683Z,80.56
2016-11-26T13:26:43.249Z,80.32
2016-11-26T13:27:51.811Z,80.6
2016-11-26T13:29:01.367Z,80.41
2016-11-26T13:30:09.929Z,81.17
2016-11-26T13:31:19.161Z,81.51
2016-11-26T13:32:27.729Z,80.56
2016-11-26T13:33:36.301Z,81.07
2016-11-26T13:34:45.536Z,81.6
2016-11-26T13:35:54.430Z,80.03
2016-11-26T13:37:03.318Z,78.99
2016-11-26T13:38:12.228Z,80.6
2016-11-26T13:39:20.797Z,80.94
2016-11-26T13:40:29.712Z,81.84
2016-11-26T13:41:38.598Z,81.88
2016-11-26T13:42:47.488Z,83.03
2016-11-26T13:43:56.055Z,83.69
2016-11-26T13:45:04.939Z,84.07
2016-11-26T13:46:13.559Z,83.97
2016-11-26T13:47:22.123Z,83.97
2016-11-26T13:48:31.005Z,82.65
2016-11-26T13:49:39.572Z,82.93
2016-11-26T13:50:48.456Z,83.4
2016-11-26T13:51:57.504Z,83.59
2016-11-26T13:53:06.075Z,83.4
2016-11-26T13:54:14.641Z,83.4
2016-11-26T13:55:23.526Z,82.74
2016-11-26T13:56:32.096Z,81.36
2016-11-26T13:57:40.759Z,80.79
2016-11-26T13:58:49.320Z,81.26
2016-11-26T13:59:58.214Z,81.74
2016-11-26T14:01:06.789Z,81.65
2016-11-26T14:02:15.361Z,82.46
2016-11-26T14:03:24.600Z,82.97
2016-11-26T14:04:33.165Z,83.5
2016-11-26T14:05:41.731Z,84.74
2016-11-26T14:06:50.617Z,83.31
2016-11-26T14:07:59.186Z,82.5
2016-11-26T14:09:08.156Z,83.03
2016-11-26T14:10:17.046Z,83.12
2016-11-26T14:11:25.613Z,84.07
2016-11-26T14:12:34.178Z,82.93
2016-11-26T14:13:43.063Z,82.93
2016-11-26T14:14:52.716Z,81.98
2016-11-26T14:16:01.284Z,81.93
2016-11-26T14:17:09.849Z,82.31
2016-11-26T14:18:19.051Z,83.16
2016-11-26T14:19:27.636Z,83.26
2016-11-26T14:20:37.288Z,84.17
2016-11-26T14:21:45.857Z,83.03
2016-11-26T14:22:54.739Z,82.59
2016-11-26T14:24:04.255Z,83.07
2016-11-26T14:25:13.138Z,82.27
2016-11-26T14:26:22.068Z,80.98
2016-11-26T14:27:31.271Z,79.88
2016-11-26T14:28:39.837Z,78.93
2016-11-26T14:29:48.723Z,80.64
2016-11-26T14:30:57.635Z,81.17
2016-11-26T14:32:06.889Z,80.41
2016-11-26T14:33:15.772Z,80.74
2016-11-26T14:34:24.978Z,80.98
2016-11-26T14:35:33.862Z,80.98
2016-11-26T14:36:42.752Z,80.79
2016-11-26T14:37:52.330Z,79.22
2016-11-26T14:39:00.900Z,80.16
2016-11-26T14:40:09.791Z,80.83
2016-11-26T14:41:18.360Z,81.45
2016-11-26T14:42:27.246Z,82.4
2016-11-26T14:43:36.483Z,83.07
2016-11-26T14:44:45.685Z,83.07
2016-11-26T14:45:54.567Z,83.26
2016-11-26T14:47:03.475Z,83.45
2016-11-26T14:48:13.016Z,83.73
2016-11-26T14:49:21.950Z,83.92
2016-11-26T14:50:30.834Z,83.54